sensor_id;sensor_type;location;lat;lon;timestamp;temperature;humidity
51615;DHT22;37695;52.960;6.188;2023-12-14T00:02:00;6.10;99.90
51615;DHT22;37695;52.960;6.188;2023-12-14T00:04:25;5.80;99.90
51615;DHT22;37695;52.960;6.188;2023-12-14T00:06:51;5.60;99.90
51615;DHT22;37695;52.960;6.188;2023-12-14T00:09:17;5.80;99.90
51615;DHT22;37695;52.960;6.188;2023-12-14T00:11:42;5.70;99.90
51615;DHT22;37695;52.960;6.188;2023-12-14T00:14:08;5.50;99.90
51615;DHT22;37695;52.960;6.188;2023-12-14T00:16:33;7.00;99.90
51615;DHT22;37695;52.960;6.188;2023-12-14T00:18:59;5.60;99.90
51615;DHT22;37695;52.960;6.188;2023-12-14T00:21:25;5.50;99.90
51615;DHT22;37695;52.960;6.188;2023-12-14T00:23:50;6.40;99.90
51615;DHT22;37695;52.960;6.188;2023-12-14T00:26:16;6.20;99.90
51615;DHT22;37695;52.960;6.188;2023-12-14T00:28:43;5.70;99.90
51615;DHT22;37695;52.960;6.188;2023-12-14T00:31:08;5.90;99.90
51615;DHT22;37695;52.960;6.188;2023-12-14T00:33:34;5.50;99.90
51615;DHT22;37695;52.960;6.188;2023-12-14T00:36:00;6.60;99.90
51615;DHT22;37695;52.960;6.188;2023-12-14T00:38:25;6.50;99.90
51615;DHT22;37695;52.960;6.188;2023-12-14T00:40:51;5.80;99.90
51615;DHT22;37695;52.960;6.188;2023-12-14T00:43:16;5.60;99.90
51615;DHT22;37695;52.960;6.188;2023-12-14T00:45:42;6.30;99.90
51615;DHT22;37695;52.960;6.188;2023-12-14T00:48:08;5.60;99.90
51615;DHT22;37695;52.960;6.188;2023-12-14T00:50:33;5.00;99.90
51615;DHT22;37695;52.960;6.188;2023-12-14T00:52:59;5.70;99.90
51615;DHT22;37695;52.960;6.188;2023-12-14T00:55:25;6.30;99.90
51615;DHT22;37695;52.960;6.188;2023-12-14T00:57:50;5.70;99.90
51615;DHT22;37695;52.960;6.188;2023-12-14T01:00:16;5.80;99.90
51615;DHT22;37695;52.960;6.188;2023-12-14T01:02:42;6.10;99.90
51615;DHT22;37695;52.960;6.188;2023-12-14T01:05:08;5.70;99.90
51615;DHT22;37695;52.960;6.188;2023-12-14T01:07:33;4.90;99.90
51615;DHT22;37695;52.960;6.188;2023-12-14T01:09:59;5.10;99.90
51615;DHT22;37695;52.960;6.188;2023-12-14T01:12:25;5.50;99.90
51615;DHT22;37695;52.960;6.188;2023-12-14T01:14:50;5.30;99.90
51615;DHT22;37695;52.960;6.188;2023-12-14T01:17:16;6.20;99.90
51615;DHT22;37695;52.960;6.188;2023-12-14T01:19:42;5.70;99.90
51615;DHT22;37695;52.960;6.188;2023-12-14T01:22:07;5.50;99.90
51615;DHT22;37695;52.960;6.188;2023-12-14T01:24:33;4.90;99.90
51615;DHT22;37695;52.960;6.188;2023-12-14T01:26:59;5.70;99.90
51615;DHT22;37695;52.960;6.188;2023-12-14T01:29:24;5.70;99.90
51615;DHT22;37695;52.960;6.188;2023-12-14T01:31:50;5.10;99.90
51615;DHT22;37695;52.960;6.188;2023-12-14T01:34:15;5.40;99.90
51615;DHT22;37695;52.960;6.188;2023-12-14T01:36:41;6.00;99.90
51615;DHT22;37695;52.960;6.188;2023-12-14T01:39:07;5.50;99.90
51615;DHT22;37695;52.960;6.188;2023-12-14T01:41:33;5.20;99.90
51615;DHT22;37695;52.960;6.188;2023-12-14T01:46:24;5.60;99.90
51615;DHT22;37695;52.960;6.188;2023-12-14T01:48:50;5.10;99.90
51615;DHT22;37695;52.960;6.188;2023-12-14T01:51:18;5.80;99.90
51615;DHT22;37695;52.960;6.188;2023-12-14T01:53:44;5.10;99.90
51615;DHT22;37695;52.960;6.188;2023-12-14T01:56:10;5.70;99.90
51615;DHT22;37695;52.960;6.188;2023-12-14T01:58:36;4.50;99.90
51615;DHT22;37695;52.960;6.188;2023-12-14T02:01:33;4.50;99.90
51615;DHT22;37695;52.960;6.188;2023-12-14T02:04:01;6.10;99.90
51615;DHT22;37695;52.960;6.188;2023-12-14T02:06:27;4.30;99.90
51615;DHT22;37695;52.960;6.188;2023-12-14T02:08:53;6.00;99.90
51615;DHT22;37695;52.960;6.188;2023-12-14T02:11:18;5.80;99.90
51615;DHT22;37695;52.960;6.188;2023-12-14T02:13:44;5.20;99.90
51615;DHT22;37695;52.960;6.188;2023-12-14T02:16:10;5.30;99.90
51615;DHT22;37695;52.960;6.188;2023-12-14T02:18:35;5.20;99.90
51615;DHT22;37695;52.960;6.188;2023-12-14T02:21:01;5.90;99.90
51615;DHT22;37695;52.960;6.188;2023-12-14T02:23:26;5.20;99.90
51615;DHT22;37695;52.960;6.188;2023-12-14T02:28:18;4.60;99.90
51615;DHT22;37695;52.960;6.188;2023-12-14T02:30:44;5.60;99.90
51615;DHT22;37695;52.960;6.188;2023-12-14T02:33:09;5.70;99.90
51615;DHT22;37695;52.960;6.188;2023-12-14T02:38:01;4.80;99.90
51615;DHT22;37695;52.960;6.188;2023-12-14T02:40:27;5.30;99.90
51615;DHT22;37695;52.960;6.188;2023-12-14T02:42:52;4.90;99.90
51615;DHT22;37695;52.960;6.188;2023-12-14T02:45:18;5.60;99.90
51615;DHT22;37695;52.960;6.188;2023-12-14T02:47:43;5.30;99.90
51615;DHT22;37695;52.960;6.188;2023-12-14T02:50:09;5.50;99.90
51615;DHT22;37695;52.960;6.188;2023-12-14T02:52:35;6.00;99.90
51615;DHT22;37695;52.960;6.188;2023-12-14T02:57:26;5.30;99.90
51615;DHT22;37695;52.960;6.188;2023-12-14T03:02:18;5.50;99.90
51615;DHT22;37695;52.960;6.188;2023-12-14T03:04:44;5.40;99.90
51615;DHT22;37695;52.960;6.188;2023-12-14T03:07:09;3.70;99.90
51615;DHT22;37695;52.960;6.188;2023-12-14T03:09:35;5.30;99.90
51615;DHT22;37695;52.960;6.188;2023-12-14T03:12:00;5.70;99.90
51615;DHT22;37695;52.960;6.188;2023-12-14T03:14:32;5.30;99.90
51615;DHT22;37695;52.960;6.188;2023-12-14T03:16:58;5.60;99.90
51615;DHT22;37695;52.960;6.188;2023-12-14T03:19:23;3.50;99.90
51615;DHT22;37695;52.960;6.188;2023-12-14T03:21:49;4.80;99.90
51615;DHT22;37695;52.960;6.188;2023-12-14T03:24:14;5.60;99.90
51615;DHT22;37695;52.960;6.188;2023-12-14T03:26:40;5.90;99.90
51615;DHT22;37695;52.960;6.188;2023-12-14T03:29:05;5.60;99.90
51615;DHT22;37695;52.960;6.188;2023-12-14T03:33:59;4.90;99.90
51615;DHT22;37695;52.960;6.188;2023-12-14T03:36:25;5.60;99.90
51615;DHT22;37695;52.960;6.188;2023-12-14T03:38:52;5.20;99.90
51615;DHT22;37695;52.960;6.188;2023-12-14T03:41:17;5.30;99.90
51615;DHT22;37695;52.960;6.188;2023-12-14T03:43:43;5.90;99.90
51615;DHT22;37695;52.960;6.188;2023-12-14T03:46:09;5.60;99.90
51615;DHT22;37695;52.960;6.188;2023-12-14T03:48:35;5.30;99.90
51615;DHT22;37695;52.960;6.188;2023-12-14T03:51:04;4.90;99.90
51615;DHT22;37695;52.960;6.188;2023-12-14T03:53:30;3.70;99.90
51615;DHT22;37695;52.960;6.188;2023-12-14T03:56:00;5.60;99.90
51615;DHT22;37695;52.960;6.188;2023-12-14T03:58:25;5.90;99.90
51615;DHT22;37695;52.960;6.188;2023-12-14T04:00:51;5.20;99.90
51615;DHT22;37695;52.960;6.188;2023-12-14T04:03:17;4.90;99.90
51615;DHT22;37695;52.960;6.188;2023-12-14T04:05:43;5.30;99.90
51615;DHT22;37695;52.960;6.188;2023-12-14T04:08:10;5.30;99.90
51615;DHT22;37695;52.960;6.188;2023-12-14T04:10:36;5.80;99.90
51615;DHT22;37695;52.960;6.188;2023-12-14T04:15:27;5.40;99.90
51615;DHT22;37695;52.960;6.188;2023-12-14T04:17:53;5.30;99.90
51615;DHT22;37695;52.960;6.188;2023-12-14T04:20:19;5.30;99.90
51615;DHT22;37695;52.960;6.188;2023-12-14T04:22:44;5.90;99.90
51615;DHT22;37695;52.960;6.188;2023-12-14T04:25:10;4.40;99.90
51615;DHT22;37695;52.960;6.188;2023-12-14T04:27:36;5.40;99.90
51615;DHT22;37695;52.960;6.188;2023-12-14T04:30:02;5.20;99.90
51615;DHT22;37695;52.960;6.188;2023-12-14T04:32:29;5.40;99.90
51615;DHT22;37695;52.960;6.188;2023-12-14T04:34:55;5.20;99.90
51615;DHT22;37695;52.960;6.188;2023-12-14T04:37:21;5.20;99.90
51615;DHT22;37695;52.960;6.188;2023-12-14T04:39:46;3.90;99.90
51615;DHT22;37695;52.960;6.188;2023-12-14T04:42:12;5.00;99.90
51615;DHT22;37695;52.960;6.188;2023-12-14T04:44:37;6.10;99.90
51615;DHT22;37695;52.960;6.188;2023-12-14T04:47:03;5.00;99.90
51615;DHT22;37695;52.960;6.188;2023-12-14T04:49:29;4.80;99.90
51615;DHT22;37695;52.960;6.188;2023-12-14T04:51:54;5.50;99.90
51615;DHT22;37695;52.960;6.188;2023-12-14T04:54:20;5.10;99.90
51615;DHT22;37695;52.960;6.188;2023-12-14T04:56:46;5.30;99.90
51615;DHT22;37695;52.960;6.188;2023-12-14T04:59:12;4.70;99.90
51615;DHT22;37695;52.960;6.188;2023-12-14T05:01:37;5.10;99.90
51615;DHT22;37695;52.960;6.188;2023-12-14T05:04:03;3.60;99.90
51615;DHT22;37695;52.960;6.188;2023-12-14T05:06:29;5.20;99.90
51615;DHT22;37695;52.960;6.188;2023-12-14T05:08:55;5.30;99.90
51615;DHT22;37695;52.960;6.188;2023-12-14T05:11:21;6.00;99.90
51615;DHT22;37695;52.960;6.188;2023-12-14T05:13:46;5.20;99.90
51615;DHT22;37695;52.960;6.188;2023-12-14T05:16:15;5.40;99.90
51615;DHT22;37695;52.960;6.188;2023-12-14T05:18:41;5.80;99.90
51615;DHT22;37695;52.960;6.188;2023-12-14T05:21:06;5.50;99.90
51615;DHT22;37695;52.960;6.188;2023-12-14T05:23:32;5.30;99.90
51615;DHT22;37695;52.960;6.188;2023-12-14T05:25:58;5.30;99.90
51615;DHT22;37695;52.960;6.188;2023-12-14T05:28:24;5.40;99.90
51615;DHT22;37695;52.960;6.188;2023-12-14T05:30:49;5.20;99.90
51615;DHT22;37695;52.960;6.188;2023-12-14T05:33:15;5.20;99.90
51615;DHT22;37695;52.960;6.188;2023-12-14T05:35:41;5.30;99.90
51615;DHT22;37695;52.960;6.188;2023-12-14T05:38:06;5.20;99.90
51615;DHT22;37695;52.960;6.188;2023-12-14T05:40:32;5.40;99.90
51615;DHT22;37695;52.960;6.188;2023-12-14T05:42:57;6.00;99.90
51615;DHT22;37695;52.960;6.188;2023-12-14T05:45:23;5.10;99.90
51615;DHT22;37695;52.960;6.188;2023-12-14T05:47:49;6.00;99.90
51615;DHT22;37695;52.960;6.188;2023-12-14T05:50:14;4.60;99.90
51615;DHT22;37695;52.960;6.188;2023-12-14T05:52:40;4.50;99.90
51615;DHT22;37695;52.960;6.188;2023-12-14T05:55:10;5.70;99.90
51615;DHT22;37695;52.960;6.188;2023-12-14T05:57:36;4.80;99.90
51615;DHT22;37695;52.960;6.188;2023-12-14T06:00:03;5.70;99.90
51615;DHT22;37695;52.960;6.188;2023-12-14T06:02:32;4.70;99.90
51615;DHT22;37695;52.960;6.188;2023-12-14T06:04:57;3.90;99.90
51615;DHT22;37695;52.960;6.188;2023-12-14T06:07:24;5.50;99.90
51615;DHT22;37695;52.960;6.188;2023-12-14T06:09:49;4.70;99.90
51615;DHT22;37695;52.960;6.188;2023-12-14T06:14:41;4.80;99.90
51615;DHT22;37695;52.960;6.188;2023-12-14T06:17:07;5.30;99.90
51615;DHT22;37695;52.960;6.188;2023-12-14T06:19:32;5.50;99.90
51615;DHT22;37695;52.960;6.188;2023-12-14T06:21:58;5.10;99.90
51615;DHT22;37695;52.960;6.188;2023-12-14T06:24:24;4.50;99.90
51615;DHT22;37695;52.960;6.188;2023-12-14T06:26:49;5.50;99.90
51615;DHT22;37695;52.960;6.188;2023-12-14T06:29:15;5.60;99.90
51615;DHT22;37695;52.960;6.188;2023-12-14T06:31:40;5.10;99.90
51615;DHT22;37695;52.960;6.188;2023-12-14T06:34:06;5.00;99.90
51615;DHT22;37695;52.960;6.188;2023-12-14T06:36:33;5.20;99.90
51615;DHT22;37695;52.960;6.188;2023-12-14T06:39:00;5.30;99.90
51615;DHT22;37695;52.960;6.188;2023-12-14T06:41:26;5.00;99.90
51615;DHT22;37695;52.960;6.188;2023-12-14T06:43:53;4.60;99.90
51615;DHT22;37695;52.960;6.188;2023-12-14T06:46:20;5.70;99.90
51615;DHT22;37695;52.960;6.188;2023-12-14T06:48:46;5.50;99.90
51615;DHT22;37695;52.960;6.188;2023-12-14T06:51:12;5.70;99.90
51615;DHT22;37695;52.960;6.188;2023-12-14T06:53:41;5.60;99.90
51615;DHT22;37695;52.960;6.188;2023-12-14T06:56:07;5.60;99.90
51615;DHT22;37695;52.960;6.188;2023-12-14T06:58:45;5.60;99.90
51615;DHT22;37695;52.960;6.188;2023-12-14T07:01:15;4.80;99.90
51615;DHT22;37695;52.960;6.188;2023-12-14T07:03:41;5.30;99.90
51615;DHT22;37695;52.960;6.188;2023-12-14T07:06:16;5.80;99.90
51615;DHT22;37695;52.960;6.188;2023-12-14T07:08:42;4.70;99.90
51615;DHT22;37695;52.960;6.188;2023-12-14T07:11:09;4.60;99.90
51615;DHT22;37695;52.960;6.188;2023-12-14T07:13:35;5.20;99.90
51615;DHT22;37695;52.960;6.188;2023-12-14T07:16:07;5.00;99.90
51615;DHT22;37695;52.960;6.188;2023-12-14T07:18:37;5.70;99.90
51615;DHT22;37695;52.960;6.188;2023-12-14T07:21:04;4.70;99.90
51615;DHT22;37695;52.960;6.188;2023-12-14T07:23:30;5.10;99.90
51615;DHT22;37695;52.960;6.188;2023-12-14T07:25:56;3.50;99.90
51615;DHT22;37695;52.960;6.188;2023-12-14T07:28:21;5.00;99.90
51615;DHT22;37695;52.960;6.188;2023-12-14T07:30:47;5.40;99.90
51615;DHT22;37695;52.960;6.188;2023-12-14T07:33:14;5.10;99.90
51615;DHT22;37695;52.960;6.188;2023-12-14T07:35:39;5.30;99.90
51615;DHT22;37695;52.960;6.188;2023-12-14T07:38:05;5.40;99.90
51615;DHT22;37695;52.960;6.188;2023-12-14T07:40:30;4.90;99.90
51615;DHT22;37695;52.960;6.188;2023-12-14T07:42:56;5.40;99.90
51615;DHT22;37695;52.960;6.188;2023-12-14T07:45:22;5.40;99.90
51615;DHT22;37695;52.960;6.188;2023-12-14T07:47:47;5.60;99.90
51615;DHT22;37695;52.960;6.188;2023-12-14T07:50:13;5.00;99.90
51615;DHT22;37695;52.960;6.188;2023-12-14T07:52:39;4.60;99.90
51615;DHT22;37695;52.960;6.188;2023-12-14T07:55:06;4.90;99.90
51615;DHT22;37695;52.960;6.188;2023-12-14T07:57:32;5.20;99.90
51615;DHT22;37695;52.960;6.188;2023-12-14T07:59:58;4.90;99.90
51615;DHT22;37695;52.960;6.188;2023-12-14T08:02:23;5.70;99.90
51615;DHT22;37695;52.960;6.188;2023-12-14T08:04:49;5.70;99.90
51615;DHT22;37695;52.960;6.188;2023-12-14T08:07:15;5.80;99.90
51615;DHT22;37695;52.960;6.188;2023-12-14T08:09:40;5.40;99.90
51615;DHT22;37695;52.960;6.188;2023-12-14T08:12:06;5.30;99.90
51615;DHT22;37695;52.960;6.188;2023-12-14T08:14:35;5.30;99.90
51615;DHT22;37695;52.960;6.188;2023-12-14T08:17:03;5.10;99.90
51615;DHT22;37695;52.960;6.188;2023-12-14T08:19:29;4.90;99.90
51615;DHT22;37695;52.960;6.188;2023-12-14T08:21:54;5.30;99.90
51615;DHT22;37695;52.960;6.188;2023-12-14T08:24:20;5.90;99.90
51615;DHT22;37695;52.960;6.188;2023-12-14T08:26:46;5.70;99.90
51615;DHT22;37695;52.960;6.188;2023-12-14T08:29:11;5.70;99.90
51615;DHT22;37695;52.960;6.188;2023-12-14T08:31:37;5.80;99.90
51615;DHT22;37695;52.960;6.188;2023-12-14T08:34:02;6.10;99.90
51615;DHT22;37695;52.960;6.188;2023-12-14T08:36:29;5.80;99.90
51615;DHT22;37695;52.960;6.188;2023-12-14T08:38:55;5.70;99.90
51615;DHT22;37695;52.960;6.188;2023-12-14T08:41:20;6.10;99.90
51615;DHT22;37695;52.960;6.188;2023-12-14T08:43:46;5.80;99.90
51615;DHT22;37695;52.960;6.188;2023-12-14T08:46:12;5.80;99.90
51615;DHT22;37695;52.960;6.188;2023-12-14T08:51:04;6.10;99.90
51615;DHT22;37695;52.960;6.188;2023-12-14T08:53:29;5.70;99.90
51615;DHT22;37695;52.960;6.188;2023-12-14T08:55:55;6.50;99.90
51615;DHT22;37695;52.960;6.188;2023-12-14T08:58:21;7.50;99.90
51615;DHT22;37695;52.960;6.188;2023-12-14T09:00:47;5.70;99.90
51615;DHT22;37695;52.960;6.188;2023-12-14T09:03:12;5.20;99.90
51615;DHT22;37695;52.960;6.188;2023-12-14T09:05:38;6.10;99.90
51615;DHT22;37695;52.960;6.188;2023-12-14T09:08:07;5.80;99.90
51615;DHT22;37695;52.960;6.188;2023-12-14T09:10:33;7.80;99.90
51615;DHT22;37695;52.960;6.188;2023-12-14T09:12:59;6.20;99.90
51615;DHT22;37695;52.960;6.188;2023-12-14T09:15:25;6.60;99.90
51615;DHT22;37695;52.960;6.188;2023-12-14T09:17:51;6.20;99.90
51615;DHT22;37695;52.960;6.188;2023-12-14T09:20:17;5.90;99.90
51615;DHT22;37695;52.960;6.188;2023-12-14T09:22:42;6.60;99.90
51615;DHT22;37695;52.960;6.188;2023-12-14T09:25:08;5.70;99.90
51615;DHT22;37695;52.960;6.188;2023-12-14T09:27:34;5.90;99.90
51615;DHT22;37695;52.960;6.188;2023-12-14T09:30:00;6.40;99.90
51615;DHT22;37695;52.960;6.188;2023-12-14T09:34:52;5.90;99.90
51615;DHT22;37695;52.960;6.188;2023-12-14T09:37:21;6.50;99.90
51615;DHT22;37695;52.960;6.188;2023-12-14T09:39:47;4.50;99.90
51615;DHT22;37695;52.960;6.188;2023-12-14T09:42:17;5.00;99.90
51615;DHT22;37695;52.960;6.188;2023-12-14T09:44:43;5.90;99.90
51615;DHT22;37695;52.960;6.188;2023-12-14T09:47:09;5.90;99.90
51615;DHT22;37695;52.960;6.188;2023-12-14T09:49:35;6.80;99.90
51615;DHT22;37695;52.960;6.188;2023-12-14T09:52:02;6.00;99.90
51615;DHT22;37695;52.960;6.188;2023-12-14T09:54:28;5.60;99.90
51615;DHT22;37695;52.960;6.188;2023-12-14T09:56:54;6.10;99.90
51615;DHT22;37695;52.960;6.188;2023-12-14T09:59:20;5.00;99.90
51615;DHT22;37695;52.960;6.188;2023-12-14T10:01:46;6.80;99.90
51615;DHT22;37695;52.960;6.188;2023-12-14T10:04:19;6.10;99.90
51615;DHT22;37695;52.960;6.188;2023-12-14T10:06:47;6.20;99.90
51615;DHT22;37695;52.960;6.188;2023-12-14T10:09:13;6.20;99.90
51615;DHT22;37695;52.960;6.188;2023-12-14T10:11:41;6.70;99.90
51615;DHT22;37695;52.960;6.188;2023-12-14T10:14:23;6.20;99.90
51615;DHT22;37695;52.960;6.188;2023-12-14T10:16:53;6.10;99.90
51615;DHT22;37695;52.960;6.188;2023-12-14T10:19:19;6.30;99.90
51615;DHT22;37695;52.960;6.188;2023-12-14T10:21:49;6.30;99.90
51615;DHT22;37695;52.960;6.188;2023-12-14T10:24:15;5.70;99.90
51615;DHT22;37695;52.960;6.188;2023-12-14T10:26:41;6.20;99.90
51615;DHT22;37695;52.960;6.188;2023-12-14T10:29:07;6.10;99.90
51615;DHT22;37695;52.960;6.188;2023-12-14T10:31:33;6.50;99.90
51615;DHT22;37695;52.960;6.188;2023-12-14T10:34:06;6.50;99.90
51615;DHT22;37695;52.960;6.188;2023-12-14T10:36:32;6.60;99.90
51615;DHT22;37695;52.960;6.188;2023-12-14T10:38:59;6.70;99.90
51615;DHT22;37695;52.960;6.188;2023-12-14T10:41:25;6.70;99.90
51615;DHT22;37695;52.960;6.188;2023-12-14T10:43:55;6.70;99.90
51615;DHT22;37695;52.960;6.188;2023-12-14T10:46:20;6.80;99.90
51615;DHT22;37695;52.960;6.188;2023-12-14T10:48:50;6.70;99.90
51615;DHT22;37695;52.960;6.188;2023-12-14T10:51:18;6.70;99.90
51615;DHT22;37695;52.960;6.188;2023-12-14T10:53:45;6.80;99.90
51615;DHT22;37695;52.960;6.188;2023-12-14T10:56:15;6.90;99.90
51615;DHT22;37695;52.960;6.188;2023-12-14T10:58:51;6.90;99.90
51615;DHT22;37695;52.960;6.188;2023-12-14T11:01:19;6.90;99.90
51615;DHT22;37695;52.960;6.188;2023-12-14T11:03:47;6.90;99.90
51615;DHT22;37695;52.960;6.188;2023-12-14T11:06:28;7.20;99.90
51615;DHT22;37695;52.960;6.188;2023-12-14T11:09:02;6.90;99.90
51615;DHT22;37695;52.960;6.188;2023-12-14T11:14:08;7.30;99.90
51615;DHT22;37695;52.960;6.188;2023-12-14T11:16:36;7.00;99.90
51615;DHT22;37695;52.960;6.188;2023-12-14T11:19:24;7.70;99.90
51615;DHT22;37695;52.960;6.188;2023-12-14T11:24:20;7.00;99.90
51615;DHT22;37695;52.960;6.188;2023-12-14T11:26:49;7.60;99.90
51615;DHT22;37695;52.960;6.188;2023-12-14T11:29:16;7.00;99.90
51615;DHT22;37695;52.960;6.188;2023-12-14T11:31:42;7.10;99.90
51615;DHT22;37695;52.960;6.188;2023-12-14T11:34:07;7.10;99.90
51615;DHT22;37695;52.960;6.188;2023-12-14T11:36:33;7.00;99.90
51615;DHT22;37695;52.960;6.188;2023-12-14T11:38:59;7.00;99.90
51615;DHT22;37695;52.960;6.188;2023-12-14T11:41:25;7.20;99.90
51615;DHT22;37695;52.960;6.188;2023-12-14T11:43:51;7.10;99.90
51615;DHT22;37695;52.960;6.188;2023-12-14T11:46:17;7.40;99.90
51615;DHT22;37695;52.960;6.188;2023-12-14T11:48:46;7.40;99.90
51615;DHT22;37695;52.960;6.188;2023-12-14T11:51:15;7.70;99.90
51615;DHT22;37695;52.960;6.188;2023-12-14T11:53:47;7.10;99.90
51615;DHT22;37695;52.960;6.188;2023-12-14T11:56:19;6.80;99.90
51615;DHT22;37695;52.960;6.188;2023-12-14T11:58:45;7.10;99.90
51615;DHT22;37695;52.960;6.188;2023-12-14T12:01:16;7.60;99.90
51615;DHT22;37695;52.960;6.188;2023-12-14T12:03:43;7.10;99.90
51615;DHT22;37695;52.960;6.188;2023-12-14T12:06:20;6.60;99.90
51615;DHT22;37695;52.960;6.188;2023-12-14T12:08:46;7.00;99.90
51615;DHT22;37695;52.960;6.188;2023-12-14T12:11:19;7.70;99.90
51615;DHT22;37695;52.960;6.188;2023-12-14T12:13:53;7.00;99.90
51615;DHT22;37695;52.960;6.188;2023-12-14T12:16:19;6.90;99.90
51615;DHT22;37695;52.960;6.188;2023-12-14T12:18:44;6.90;99.90
51615;DHT22;37695;52.960;6.188;2023-12-14T12:21:11;6.80;99.90
51615;DHT22;37695;52.960;6.188;2023-12-14T12:23:37;6.80;99.90
51615;DHT22;37695;52.960;6.188;2023-12-14T12:26:04;6.90;99.90
51615;DHT22;37695;52.960;6.188;2023-12-14T12:28:30;6.70;99.90
51615;DHT22;37695;52.960;6.188;2023-12-14T12:30:56;6.70;99.90
51615;DHT22;37695;52.960;6.188;2023-12-14T12:33:21;6.70;99.90
51615;DHT22;37695;52.960;6.188;2023-12-14T12:35:47;6.60;99.90
51615;DHT22;37695;52.960;6.188;2023-12-14T12:38:13;6.60;99.90
51615;DHT22;37695;52.960;6.188;2023-12-14T12:40:39;6.20;99.90
51615;DHT22;37695;52.960;6.188;2023-12-14T12:43:05;6.80;99.90
51615;DHT22;37695;52.960;6.188;2023-12-14T12:45:31;6.50;99.90
51615;DHT22;37695;52.960;6.188;2023-12-14T12:47:57;5.20;99.90
51615;DHT22;37695;52.960;6.188;2023-12-14T12:50:23;6.60;99.90
51615;DHT22;37695;52.960;6.188;2023-12-14T12:52:49;6.60;99.90
51615;DHT22;37695;52.960;6.188;2023-12-14T12:55:15;6.40;99.90
51615;DHT22;37695;52.960;6.188;2023-12-14T12:57:41;6.40;99.90
51615;DHT22;37695;52.960;6.188;2023-12-14T13:00:08;6.50;99.90
51615;DHT22;37695;52.960;6.188;2023-12-14T13:02:38;6.60;99.90
51615;DHT22;37695;52.960;6.188;2023-12-14T13:05:06;6.70;99.90
51615;DHT22;37695;52.960;6.188;2023-12-14T13:07:33;5.70;99.90
51615;DHT22;37695;52.960;6.188;2023-12-14T13:09:59;6.60;99.90
51615;DHT22;37695;52.960;6.188;2023-12-14T13:12:25;6.30;99.90
51615;DHT22;37695;52.960;6.188;2023-12-14T13:14:50;6.50;99.90
51615;DHT22;37695;52.960;6.188;2023-12-14T13:17:16;6.60;99.90
51615;DHT22;37695;52.960;6.188;2023-12-14T13:19:44;7.20;99.90
51615;DHT22;37695;52.960;6.188;2023-12-14T13:22:09;7.40;99.90
51615;DHT22;37695;52.960;6.188;2023-12-14T13:24:37;7.00;99.90
51615;DHT22;37695;52.960;6.188;2023-12-14T13:27:03;6.20;99.90
51615;DHT22;37695;52.960;6.188;2023-12-14T13:29:30;6.60;99.90
51615;DHT22;37695;52.960;6.188;2023-12-14T13:31:57;5.80;99.90
51615;DHT22;37695;52.960;6.188;2023-12-14T13:34:24;6.50;99.90
51615;DHT22;37695;52.960;6.188;2023-12-14T13:39:16;7.00;99.90
51615;DHT22;37695;52.960;6.188;2023-12-14T13:41:43;6.40;99.90
51615;DHT22;37695;52.960;6.188;2023-12-14T13:44:08;6.00;99.90
51615;DHT22;37695;52.960;6.188;2023-12-14T13:46:34;6.10;99.90
51615;DHT22;37695;52.960;6.188;2023-12-14T13:49:00;6.50;99.90
51615;DHT22;37695;52.960;6.188;2023-12-14T13:51:27;5.80;99.90
51615;DHT22;37695;52.960;6.188;2023-12-14T13:53:53;6.50;99.90
51615;DHT22;37695;52.960;6.188;2023-12-14T13:56:18;6.40;99.90
51615;DHT22;37695;52.960;6.188;2023-12-14T13:58:44;6.20;99.90
51615;DHT22;37695;52.960;6.188;2023-12-14T14:01:10;6.50;99.90
51615;DHT22;37695;52.960;6.188;2023-12-14T14:03:36;6.30;99.90
51615;DHT22;37695;52.960;6.188;2023-12-14T14:06:03;6.50;99.90
51615;DHT22;37695;52.960;6.188;2023-12-14T14:08:29;6.40;99.90
51615;DHT22;37695;52.960;6.188;2023-12-14T14:10:57;5.20;99.90
51615;DHT22;37695;52.960;6.188;2023-12-14T14:15:49;6.40;99.90
51615;DHT22;37695;52.960;6.188;2023-12-14T14:18:14;6.50;99.90
51615;DHT22;37695;52.960;6.188;2023-12-14T14:20:40;6.40;99.90
51615;DHT22;37695;52.960;6.188;2023-12-14T14:23:06;6.80;99.90
51615;DHT22;37695;52.960;6.188;2023-12-14T14:25:31;6.80;99.90
51615;DHT22;37695;52.960;6.188;2023-12-14T14:27:57;6.20;99.90
51615;DHT22;37695;52.960;6.188;2023-12-14T14:30:24;6.10;99.90
51615;DHT22;37695;52.960;6.188;2023-12-14T14:32:49;6.20;99.90
51615;DHT22;37695;52.960;6.188;2023-12-14T14:35:15;6.10;99.90
51615;DHT22;37695;52.960;6.188;2023-12-14T14:40:14;6.00;99.90
51615;DHT22;37695;52.960;6.188;2023-12-14T14:42:40;5.90;99.90
51615;DHT22;37695;52.960;6.188;2023-12-14T14:45:07;5.90;99.90
51615;DHT22;37695;52.960;6.188;2023-12-14T14:47:33;6.20;99.90
51615;DHT22;37695;52.960;6.188;2023-12-14T14:50:00;5.70;99.90
51615;DHT22;37695;52.960;6.188;2023-12-14T14:52:30;5.60;99.90
51615;DHT22;37695;52.960;6.188;2023-12-14T14:54:56;5.80;99.90
51615;DHT22;37695;52.960;6.188;2023-12-14T14:59:47;3.70;99.90
51615;DHT22;37695;52.960;6.188;2023-12-14T15:02:13;6.00;99.90
51615;DHT22;37695;52.960;6.188;2023-12-14T15:04:39;3.60;99.90
51615;DHT22;37695;52.960;6.188;2023-12-14T15:07:04;5.30;99.90
51615;DHT22;37695;52.960;6.188;2023-12-14T15:11:56;6.10;99.90
51615;DHT22;37695;52.960;6.188;2023-12-14T15:14:21;5.30;99.90
51615;DHT22;37695;52.960;6.188;2023-12-14T15:16:47;5.60;99.90
51615;DHT22;37695;52.960;6.188;2023-12-14T15:19:13;3.90;99.90
51615;DHT22;37695;52.960;6.188;2023-12-14T15:21:39;3.90;99.90
51615;DHT22;37695;52.960;6.188;2023-12-14T15:24:05;5.50;99.90
51615;DHT22;37695;52.960;6.188;2023-12-14T15:26:31;5.90;99.90
51615;DHT22;37695;52.960;6.188;2023-12-14T15:28:58;6.30;99.90
51615;DHT22;37695;52.960;6.188;2023-12-14T15:33:50;5.60;99.90
51615;DHT22;37695;52.960;6.188;2023-12-14T15:36:16;5.50;99.90
51615;DHT22;37695;52.960;6.188;2023-12-14T15:38:41;5.00;99.90
51615;DHT22;37695;52.960;6.188;2023-12-14T15:41:14;5.50;99.90
51615;DHT22;37695;52.960;6.188;2023-12-14T15:43:43;5.30;99.90
51615;DHT22;37695;52.960;6.188;2023-12-14T15:46:09;4.90;99.90
51615;DHT22;37695;52.960;6.188;2023-12-14T15:51:04;5.50;99.90
51615;DHT22;37695;52.960;6.188;2023-12-14T15:53:30;5.80;99.90
51615;DHT22;37695;52.960;6.188;2023-12-14T15:58:22;5.60;99.90
51615;DHT22;37695;52.960;6.188;2023-12-14T16:00:48;5.10;99.90
51615;DHT22;37695;52.960;6.188;2023-12-14T16:03:14;5.70;99.90
51615;DHT22;37695;52.960;6.188;2023-12-14T16:05:39;4.50;99.90
51615;DHT22;37695;52.960;6.188;2023-12-14T16:08:05;5.80;99.90
51615;DHT22;37695;52.960;6.188;2023-12-14T16:10:33;6.00;99.90
51615;DHT22;37695;52.960;6.188;2023-12-14T16:12:59;5.60;99.90
51615;DHT22;37695;52.960;6.188;2023-12-14T16:15:24;6.40;99.90
51615;DHT22;37695;52.960;6.188;2023-12-14T16:17:50;5.70;99.90
51615;DHT22;37695;52.960;6.188;2023-12-14T16:20:15;6.30;99.90
51615;DHT22;37695;52.960;6.188;2023-12-14T16:22:45;5.70;99.90
51615;DHT22;37695;52.960;6.188;2023-12-14T16:25:12;4.00;99.90
51615;DHT22;37695;52.960;6.188;2023-12-14T16:27:38;6.00;99.90
51615;DHT22;37695;52.960;6.188;2023-12-14T16:30:04;4.30;99.90